createdAt,value
2019-01-20T00:02:23.220Z,91.50
2019-01-20T00:04:49.775Z,91.90
2019-01-20T00:07:16.348Z,91.50
2019-01-20T00:09:42.830Z,92.30
2019-01-20T00:12:09.329Z,92.20
2019-01-20T00:14:35.994Z,92.90
2019-01-20T00:17:02.781Z,91.80
2019-01-20T00:19:29.569Z,93.10
2019-01-20T00:21:56.045Z,93.50
2019-01-20T00:24:22.610Z,92.80
2019-01-20T00:26:49.110Z,96.20
2019-01-20T00:29:15.830Z,96.20
2019-01-20T00:31:42.517Z,93.20
2019-01-20T00:34:08.964Z,93.20
2019-01-20T00:36:35.550Z,94.00
2019-01-20T00:39:05.517Z,93.00
2019-01-20T00:41:31.994Z,94.90
2019-01-20T00:43:58.560Z,92.30
2019-01-20T00:46:25.224Z,91.70
2019-01-20T00:48:51.785Z,90.10
2019-01-20T00:51:18.660Z,90.10
2019-01-20T00:53:45.252Z,89.60
2019-01-20T00:56:11.796Z,86.80
2019-01-20T00:58:38.463Z,91.00
2019-01-20T01:01:05.129Z,89.80
2019-01-20T01:03:32.087Z,90.70
2019-01-20T01:05:58.741Z,90.80
2019-01-20T01:08:25.531Z,88.80
2019-01-20T01:10:52.005Z,92.10
2019-01-20T01:13:19.026Z,86.70
2019-01-20T01:15:45.580Z,91.30
2019-01-20T01:18:12.165Z,89.90
2019-01-20T01:20:38.932Z,91.80
2019-01-20T01:23:05.496Z,92.80
2019-01-20T01:25:31.993Z,88.60
2019-01-20T01:27:58.640Z,87.30
2019-01-20T01:30:25.317Z,87.50
2019-01-20T01:32:51.866Z,85.30
2019-01-20T01:35:18.576Z,85.70
2019-01-20T01:37:45.324Z,84.80
2019-01-20T01:40:14.107Z,86.40
2019-01-20T01:42:40.860Z,89.90
2019-01-20T01:45:10.328Z,86.10
2019-01-20T01:47:36.965Z,88.40
2019-01-20T01:50:05.761Z,88.40
2019-01-20T01:52:32.216Z,85.70
2019-01-20T01:54:58.786Z,87.20
2019-01-20T01:57:25.231Z,86.10
2019-01-20T01:59:51.719Z,86.00
2019-01-20T02:02:18.264Z,89.00
2019-01-20T02:04:44.727Z,84.30
2019-01-20T02:07:12.193Z,87.10
2019-01-20T02:09:38.755Z,88.60
2019-01-20T02:12:05.339Z,87.60
2019-01-20T02:14:31.988Z,89.90
2019-01-20T02:16:58.580Z,85.60
2019-01-20T02:19:25.146Z,85.80
2019-01-20T02:21:51.913Z,86.70
2019-01-20T02:24:18.450Z,88.20
2019-01-20T02:26:45.154Z,85.20
2019-01-20T02:29:11.969Z,84.40
2019-01-20T02:32:37.820Z,84.40
2019-01-20T02:35:04.756Z,83.90
2019-01-20T02:37:31.209Z,85.50
2019-01-20T02:39:57.785Z,88.90
2019-01-20T02:42:24.256Z,86.70
2019-01-20T02:44:50.850Z,84.30
2019-01-20T02:47:17.423Z,88.80
2019-01-20T02:49:43.990Z,83.40
2019-01-20T02:52:10.568Z,85.40
2019-01-20T02:54:37.136Z,83.60
2019-01-20T02:57:03.832Z,82.50
2019-01-20T02:59:30.179Z,84.70
2019-01-20T03:01:56.778Z,83.30
2019-01-20T03:04:25.678Z,84.70
2019-01-20T03:06:52.302Z,86.30
2019-01-20T03:09:19.072Z,85.30
2019-01-20T03:11:45.581Z,87.00
2019-01-20T03:14:12.292Z,86.90
2019-01-20T03:16:39.138Z,85.70
2019-01-20T03:19:06.041Z,88.00
2019-01-20T03:21:32.520Z,85.50
2019-01-20T03:23:59.008Z,87.30
2019-01-20T03:26:25.716Z,89.90
2019-01-20T03:28:52.172Z,88.90
2019-01-20T03:31:18.729Z,88.90
2019-01-20T03:33:45.214Z,88.90
2019-01-20T03:36:11.870Z,85.60
2019-01-20T03:38:38.247Z,87.20
2019-01-20T03:41:04.999Z,87.20
2019-01-20T03:43:31.589Z,88.50
2019-01-20T03:45:58.037Z,87.70
2019-01-20T03:48:24.635Z,84.80
2019-01-20T03:50:51.087Z,86.60
2019-01-20T03:53:17.786Z,90.90
2019-01-20T03:55:44.555Z,90.00
2019-01-20T03:58:11.204Z,88.90
2019-01-20T04:00:37.984Z,90.60
2019-01-20T04:03:05.056Z,90.20
2019-01-20T04:05:31.527Z,85.10
2019-01-20T04:07:58.265Z,87.40
2019-01-20T04:10:25.041Z,86.20
2019-01-20T04:12:51.728Z,85.70
2019-01-20T04:15:18.578Z,83.90
2019-01-20T04:17:45.015Z,88.80
2019-01-20T04:20:12.919Z,86.60
2019-01-20T04:22:39.468Z,88.00
2019-01-20T04:25:12.129Z,90.10
2019-01-20T04:27:38.871Z,89.50
2019-01-20T04:30:08.053Z,88.20
2019-01-20T04:32:34.859Z,88.50
2019-01-20T04:35:01.535Z,86.80
2019-01-20T04:37:27.993Z,85.20
2019-01-20T04:39:54.720Z,84.10
2019-01-20T04:42:28.784Z,86.00
2019-01-20T04:44:49.525Z,86.00
2019-01-20T04:47:16.002Z,86.30
2019-01-20T04:49:42.441Z,88.30
2019-01-20T04:52:08.940Z,90.00
2019-01-20T04:54:35.467Z,87.10
2019-01-20T04:57:02.047Z,89.30
2019-01-20T04:59:28.540Z,90.70
2019-01-20T05:01:54.995Z,90.00
2019-01-20T05:04:21.344Z,89.00
2019-01-20T05:06:48.227Z,90.00
2019-01-20T05:09:14.677Z,90.30
2019-01-20T05:11:41.078Z,90.90
2019-01-20T05:14:07.529Z,88.80
2019-01-20T05:16:34.883Z,85.90
2019-01-20T05:19:01.469Z,87.70
2019-01-20T05:21:28.024Z,90.70
2019-01-20T05:23:54.586Z,90.00
2019-01-20T05:26:21.053Z,88.10
2019-01-20T05:28:47.544Z,88.70
2019-01-20T05:31:13.990Z,89.70
2019-01-20T05:33:40.460Z,89.60
2019-01-20T05:36:06.995Z,90.20
2019-01-20T05:38:33.340Z,90.40
2019-01-20T05:40:59.731Z,89.60
2019-01-20T05:43:26.372Z,88.80
2019-01-20T05:45:52.868Z,89.20
2019-01-20T05:48:19.325Z,90.10
2019-01-20T05:50:45.913Z,84.70
2019-01-20T05:53:12.455Z,90.00
2019-01-20T05:55:38.984Z,88.80
2019-01-20T05:58:05.426Z,90.00
2019-01-20T06:00:32.520Z,88.80
2019-01-20T06:02:59.165Z,89.50
2019-01-20T06:05:25.875Z,89.60
2019-01-20T06:07:52.412Z,90.10
2019-01-20T06:10:19.004Z,89.70
2019-01-20T06:12:45.448Z,90.20
2019-01-20T06:15:14.946Z,90.00
2019-01-20T06:17:41.488Z,88.80
2019-01-20T06:20:08.717Z,87.80
2019-01-20T06:22:35.272Z,90.60
2019-01-20T06:25:02.022Z,91.00
2019-01-20T06:27:28.516Z,90.40
2019-01-20T06:29:55.085Z,91.00
2019-01-20T06:32:21.554Z,90.50
2019-01-20T06:34:48.914Z,90.30
2019-01-20T06:37:15.378Z,91.20
2019-01-20T06:39:42.035Z,90.50
2019-01-20T06:42:08.876Z,90.10
2019-01-20T06:44:35.220Z,90.80
2019-01-20T06:47:01.856Z,91.00
2019-01-20T06:49:28.573Z,90.50
2019-01-20T06:51:55.045Z,90.80
2019-01-20T06:54:21.496Z,90.40
2019-01-20T06:56:47.881Z,91.60
2019-01-20T06:59:14.645Z,91.80
2019-01-20T07:01:41.097Z,92.10
2019-01-20T07:04:07.700Z,92.80
2019-01-20T07:06:34.155Z,92.40
2019-01-20T07:09:00.723Z,90.90
2019-01-20T07:11:27.190Z,91.80
2019-01-20T07:13:53.653Z,91.50
2019-01-20T07:16:20.124Z,91.30
2019-01-20T07:18:46.589Z,90.70
2019-01-20T07:21:13.044Z,91.00
2019-01-20T07:23:39.781Z,91.60
2019-01-20T07:26:06.132Z,90.20
2019-01-20T07:28:32.582Z,91.80
2019-01-20T07:30:59.420Z,92.00
2019-01-20T07:33:25.768Z,91.60
2019-01-20T07:35:52.344Z,91.40
2019-01-20T07:38:18.815Z,93.10
2019-01-20T07:40:45.384Z,92.80
2019-01-20T07:43:16.775Z,93.30
2019-01-20T07:45:40.335Z,91.50
2019-01-20T07:48:06.878Z,92.70
2019-01-20T07:50:33.450Z,92.40
2019-01-20T07:53:00.012Z,92.80
2019-01-20T07:55:26.697Z,91.10
2019-01-20T07:57:53.159Z,91.40
2019-01-20T08:00:22.036Z,92.20
2019-01-20T08:02:48.476Z,93.20
2019-01-20T08:05:15.881Z,92.50
2019-01-20T08:07:42.549Z,91.50
2019-01-20T08:10:12.605Z,90.40
2019-01-20T08:12:39.572Z,87.30
2019-01-20T08:15:09.021Z,86.80
2019-01-20T08:17:35.713Z,88.90
2019-01-20T08:20:05.287Z,89.10
2019-01-20T08:22:32.158Z,89.00
2019-01-20T08:24:58.623Z,89.90
2019-01-20T08:27:25.116Z,87.50
2019-01-20T08:29:51.557Z,87.10
2019-01-20T08:32:18.469Z,85.40
2019-01-20T08:34:44.911Z,86.10
2019-01-20T08:37:11.651Z,87.80
2019-01-20T08:39:38.111Z,86.80
2019-01-20T08:42:04.466Z,84.60
2019-01-20T08:44:31.236Z,82.90
2019-01-20T08:46:57.885Z,82.40
2019-01-20T08:49:24.479Z,81.20
2019-01-20T08:51:51.022Z,78.10
2019-01-20T08:54:17.493Z,74.20
2019-01-20T08:56:44.323Z,69.40
2019-01-20T08:59:11.065Z,60.10
2019-01-20T09:01:37.731Z,59.40
2019-01-20T09:04:04.418Z,54.70
2019-01-20T09:06:30.984Z,47.00
2019-01-20T09:08:57.715Z,42.30
2019-01-20T09:11:24.197Z,36.60
2019-01-20T09:13:50.761Z,33.80
2019-01-20T09:16:17.505Z,30.20
2019-01-20T09:18:44.231Z,28.10
2019-01-20T09:21:10.904Z,26.30
2019-01-20T09:23:37.397Z,27.80
2019-01-20T09:26:03.976Z,25.40
2019-01-20T09:28:30.419Z,28.50
2019-01-20T09:30:56.905Z,27.70
2019-01-20T09:33:24.627Z,27.80
2019-01-20T09:35:51.435Z,26.10
2019-01-20T09:38:17.997Z,27.20
2019-01-20T09:40:44.434Z,27.50
2019-01-20T09:43:10.824Z,28.20
2019-01-20T09:45:37.481Z,28.30
2019-01-20T09:48:04.465Z,27.60
2019-01-20T09:50:31.012Z,26.10
2019-01-20T09:52:57.591Z,25.70
2019-01-20T09:55:24.348Z,24.40
2019-01-20T09:57:51.193Z,25.40
2019-01-20T10:00:24.252Z,27.00
2019-01-20T10:02:51.136Z,26.70
2019-01-20T10:05:17.825Z,28.50
2019-01-20T10:07:44.524Z,28.30
2019-01-20T10:10:13.273Z,26.00
2019-01-20T10:12:39.865Z,26.50
2019-01-20T10:15:09.032Z,26.50
2019-01-20T10:17:35.682Z,23.70
2019-01-20T10:20:05.461Z,23.80
2019-01-20T10:22:32.036Z,25.70
2019-01-20T10:24:58.520Z,26.30
2019-01-20T10:27:25.067Z,28.00
2019-01-20T10:29:51.556Z,27.90
2019-01-20T10:32:18.013Z,27.20
2019-01-20T10:34:44.954Z,25.30
2019-01-20T10:37:11.439Z,24.50
2019-01-20T10:39:38.159Z,25.90
2019-01-20T10:42:04.724Z,25.90
2019-01-20T10:44:31.320Z,23.90
2019-01-20T10:46:58.162Z,22.50
2019-01-20T10:49:24.520Z,22.10
2019-01-20T10:51:51.095Z,21.40
2019-01-20T10:54:17.477Z,19.20
2019-01-20T10:56:44.404Z,17.30
2019-01-20T10:59:11.147Z,15.30
2019-01-20T11:01:37.884Z,16.80
2019-01-20T11:04:04.538Z,15.70
2019-01-20T11:06:31.143Z,16.60
2019-01-20T11:08:57.960Z,18.60
2019-01-20T11:11:24.525Z,19.70
2019-01-20T11:13:51.373Z,16.70
2019-01-20T11:16:18.047Z,19.60
2019-01-20T11:18:44.608Z,22.90
2019-01-20T11:21:11.188Z,22.00
2019-01-20T11:23:38.007Z,19.90
2019-01-20T11:26:04.702Z,20.70
2019-01-20T11:28:31.379Z,21.10
2019-01-20T11:30:57.772Z,21.30
2019-01-20T11:33:24.315Z,23.40
2019-01-20T11:35:51.088Z,25.30
2019-01-20T11:38:17.756Z,24.80
2019-01-20T11:40:44.213Z,23.60
2019-01-20T11:43:10.679Z,23.30
2019-01-20T11:45:37.128Z,22.20
2019-01-20T11:48:04.589Z,21.30
2019-01-20T11:50:31.383Z,21.90
2019-01-20T11:52:57.842Z,23.40
2019-01-20T11:55:24.640Z,25.20
2019-01-20T11:57:51.287Z,25.60
2019-01-20T12:00:20.160Z,23.20
2019-01-20T12:02:46.703Z,20.70
2019-01-20T12:05:14.602Z,17.50
2019-01-20T12:07:41.073Z,19.10
2019-01-20T12:10:09.147Z,20.90
2019-01-20T12:12:36.011Z,19.70
2019-01-20T12:15:05.282Z,19.50
2019-01-20T12:17:31.844Z,18.90
2019-01-20T12:19:58.316Z,20.80
2019-01-20T12:22:24.902Z,21.90
2019-01-20T12:24:51.375Z,22.00
2019-01-20T12:27:17.837Z,23.30
2019-01-20T12:29:51.639Z,22.40
2019-01-20T12:32:12.559Z,21.90
2019-01-20T12:34:39.074Z,22.80
2019-01-20T12:37:06.587Z,22.30
2019-01-20T12:39:33.019Z,22.20
2019-01-20T12:41:59.754Z,23.20
2019-01-20T12:44:31.363Z,23.40
2019-01-20T12:46:54.944Z,22.00
2019-01-20T12:49:21.421Z,21.20
2019-01-20T12:51:47.869Z,20.10
2019-01-20T12:54:14.267Z,19.80
2019-01-20T12:56:40.813Z,22.10
2019-01-20T12:59:07.168Z,23.70
2019-01-20T13:01:33.655Z,24.20
2019-01-20T13:04:00.107Z,24.00
2019-01-20T13:06:26.606Z,21.00
2019-01-20T13:08:53.264Z,23.70
2019-01-20T13:11:19.836Z,22.80
2019-01-20T13:13:46.545Z,21.50
2019-01-20T13:16:13.030Z,21.70
2019-01-20T13:18:39.484Z,21.00
2019-01-20T13:21:05.979Z,23.10
2019-01-20T13:23:32.530Z,23.10
2019-01-20T13:25:59.113Z,24.30
2019-01-20T13:28:26.049Z,23.20
2019-01-20T13:30:52.728Z,24.90
2019-01-20T13:33:19.399Z,24.10
2019-01-20T13:35:45.857Z,22.40
2019-01-20T13:38:12.544Z,22.60
2019-01-20T13:40:48.535Z,22.60
2019-01-20T13:43:15.113Z,21.70
2019-01-20T13:45:41.579Z,21.90
2019-01-20T13:48:08.516Z,21.50
2019-01-20T13:50:35.083Z,22.80
2019-01-20T13:53:01.661Z,22.30
2019-01-20T13:55:28.213Z,24.30
2019-01-20T13:57:54.704Z,24.80
2019-01-20T14:00:24.725Z,25.70
2019-01-20T14:02:51.675Z,26.30
2019-01-20T14:05:18.324Z,26.10
2019-01-20T14:07:44.841Z,26.10
2019-01-20T14:10:17.665Z,27.00
2019-01-20T14:12:44.359Z,25.80
2019-01-20T14:15:12.736Z,26.00
2019-01-20T14:17:39.308Z,26.20
2019-01-20T14:20:09.672Z,26.30
2019-01-20T14:22:36.496Z,26.90
2019-01-20T14:25:06.779Z,26.60
2019-01-20T14:27:33.231Z,26.40
2019-01-20T14:29:59.733Z,25.70
2019-01-20T14:32:26.383Z,24.90
2019-01-20T14:34:53.220Z,23.80
2019-01-20T14:37:19.776Z,24.20
2019-01-20T14:39:46.271Z,25.20
2019-01-20T14:42:12.816Z,24.70
2019-01-20T14:44:39.300Z,25.60
2019-01-20T14:47:05.941Z,26.00
2019-01-20T14:49:32.408Z,26.30
2019-01-20T14:51:58.976Z,26.50
2019-01-20T14:54:25.538Z,27.00
2019-01-20T14:56:52.104Z,26.80
2019-01-20T14:59:18.680Z,27.00
2019-01-20T15:01:45.160Z,26.40
2019-01-20T15:04:11.648Z,27.30
2019-01-20T15:06:38.096Z,27.70
2019-01-20T15:09:05.888Z,26.90
2019-01-20T15:11:32.352Z,27.50
2019-01-20T15:13:58.949Z,29.20
2019-01-20T15:16:25.300Z,28.80
2019-01-20T15:18:51.655Z,29.50
2019-01-20T15:21:18.150Z,28.70
2019-01-20T15:23:44.723Z,28.30
2019-01-20T15:26:11.344Z,28.10
2019-01-20T15:28:38.087Z,28.20
2019-01-20T15:31:04.727Z,29.00
2019-01-20T15:33:31.167Z,29.40
2019-01-20T15:35:57.762Z,29.20
2019-01-20T15:38:24.308Z,30.70
2019-01-20T15:40:51.052Z,31.20
2019-01-20T15:43:17.497Z,32.50
2019-01-20T15:45:43.985Z,33.90
2019-01-20T15:48:10.428Z,34.70
2019-01-20T15:50:37.352Z,34.80
2019-01-20T15:53:04.029Z,35.20
2019-01-20T15:55:30.671Z,35.10
2019-01-20T15:57:57.051Z,36.00
2019-01-20T16:00:25.525Z,37.40
2019-01-20T16:02:52.485Z,39.10
2019-01-20T16:05:19.039Z,40.70
2019-01-20T16:07:45.509Z,42.30
2019-01-20T16:10:14.433Z,44.20
2019-01-20T16:12:41.108Z,46.10
2019-01-20T16:15:24.000Z,44.50
2019-01-20T16:17:45.479Z,46.80
2019-01-20T16:20:15.137Z,47.70
2019-01-20T16:22:42.009Z,46.90
2019-01-20T16:25:23.843Z,49.40
2019-01-20T16:27:50.536Z,50.70
2019-01-20T16:30:26.263Z,52.50
2019-01-20T16:32:52.961Z,53.80
2019-01-20T16:35:19.697Z,53.30
2019-01-20T16:37:47.160Z,54.30
2019-01-20T16:40:19.812Z,54.60
2019-01-20T16:42:46.360Z,54.80
2019-01-20T16:45:15.435Z,55.60
2019-01-20T16:47:41.885Z,57.30
2019-01-20T16:50:12.165Z,58.30
2019-01-20T16:52:39.072Z,60.80
2019-01-20T16:55:07.756Z,63.40
2019-01-20T16:57:34.099Z,64.90
2019-01-20T17:00:00.488Z,65.00
2019-01-20T17:02:26.950Z,64.20
2019-01-20T17:04:53.628Z,62.50
2019-01-20T17:07:20.461Z,64.60
2019-01-20T17:09:46.836Z,65.70
2019-01-20T17:12:13.183Z,68.90
2019-01-20T17:14:39.825Z,69.60
2019-01-20T17:17:06.472Z,70.20
2019-01-20T17:19:33.126Z,70.10
2019-01-20T17:21:59.560Z,69.40
2019-01-20T17:24:26.042Z,70.60
2019-01-20T17:26:52.504Z,71.40
2019-01-20T17:29:19.095Z,70.10
2019-01-20T17:31:45.936Z,71.80
2019-01-20T17:34:12.514Z,73.10
2019-01-20T17:36:39.076Z,75.00
2019-01-20T17:39:11.917Z,75.10
2019-01-20T17:41:34.957Z,76.50
2019-01-20T17:44:01.420Z,77.30
2019-01-20T17:46:27.985Z,79.20
2019-01-20T17:48:54.464Z,79.30
2019-01-20T17:51:21.076Z,79.50
2019-01-20T17:53:47.565Z,81.30
2019-01-20T17:56:14.244Z,82.90
2019-01-20T17:58:40.804Z,82.00
2019-01-20T18:01:07.580Z,82.40
2019-01-20T18:03:34.151Z,83.80
2019-01-20T18:06:01.023Z,83.30
2019-01-20T18:08:27.476Z,81.90
2019-01-20T18:10:54.068Z,84.80
2019-01-20T18:13:20.721Z,85.20
2019-01-20T18:15:54.079Z,86.00
2019-01-20T18:18:16.060Z,85.00
2019-01-20T18:20:42.938Z,84.20
2019-01-20T18:23:09.588Z,85.40
2019-01-20T18:25:36.197Z,86.80
2019-01-20T18:28:03.497Z,86.50
2019-01-20T18:30:30.778Z,85.00
2019-01-20T18:32:57.593Z,84.10
2019-01-20T18:35:25.585Z,84.80
2019-01-20T18:37:52.280Z,87.00
2019-01-20T18:40:20.589Z,87.10
2019-01-20T18:42:47.276Z,87.50
2019-01-20T18:45:16.195Z,88.20
2019-01-20T18:47:43.240Z,89.30
2019-01-20T18:50:18.143Z,89.40
2019-01-20T18:52:44.699Z,92.80
2019-01-20T18:55:13.472Z,91.90
2019-01-20T18:57:40.176Z,91.10
2019-01-20T19:00:16.011Z,90.80
2019-01-20T19:02:42.500Z,91.10
2019-01-20T19:05:11.989Z,91.10
2019-01-20T19:07:38.960Z,91.50
2019-01-20T19:10:08.824Z,91.80
2019-01-20T19:12:35.476Z,92.50
2019-01-20T19:15:02.634Z,92.90
2019-01-20T19:17:29.282Z,93.80
2019-01-20T19:19:55.992Z,94.60
2019-01-20T19:22:22.962Z,94.70
2019-01-20T19:24:49.460Z,94.50
2019-01-20T19:27:15.962Z,94.00
2019-01-20T19:29:42.632Z,94.90
2019-01-20T19:32:09.233Z,95.70
2019-01-20T19:34:36.182Z,96.30
2019-01-20T19:37:02.880Z,96.90
2019-01-20T19:39:29.297Z,97.80
2019-01-20T19:41:55.807Z,97.80
2019-01-20T19:44:22.692Z,97.80
2019-01-20T19:46:49.261Z,97.50
2019-01-20T19:49:15.849Z,98.00
2019-01-20T19:51:42.673Z,99.30
2019-01-20T19:54:09.248Z,99.90
2019-01-20T19:56:36.151Z,99.90
2019-01-20T19:59:02.751Z,99.90
2019-01-20T20:01:30.964Z,99.90
2019-01-20T20:03:57.625Z,99.90
2019-01-20T20:06:24.500Z,99.90
2019-01-20T20:08:51.068Z,99.90
2019-01-20T20:11:17.799Z,99.90
2019-01-20T20:13:44.408Z,99.90
2019-01-20T20:16:10.987Z,99.90
2019-01-20T20:18:37.470Z,99.90
2019-01-20T20:21:04.085Z,99.90
2019-01-20T20:23:30.780Z,99.90
2019-01-20T20:25:57.297Z,99.90
2019-01-20T20:28:23.849Z,99.90
2019-01-20T20:30:50.321Z,99.90
2019-01-20T20:33:17.058Z,99.90
2019-01-20T20:35:43.634Z,99.90
2019-01-20T20:38:10.181Z,99.90
2019-01-20T20:40:36.937Z,99.90
2019-01-20T20:43:03.510Z,99.90
2019-01-20T20:45:30.187Z,99.90
2019-01-20T20:47:56.752Z,99.90
2019-01-20T20:50:23.432Z,99.90
2019-01-20T20:52:50.006Z,99.90
2019-01-20T20:55:16.683Z,99.90
2019-01-20T20:57:43.432Z,99.90
2019-01-20T21:00:24.834Z,99.90
2019-01-20T21:02:51.580Z,99.90
2019-01-20T21:05:18.188Z,99.90
2019-01-20T21:07:44.847Z,99.90
2019-01-20T21:10:13.813Z,99.90
2019-01-20T21:12:40.388Z,99.90
2019-01-20T21:15:09.664Z,99.90
2019-01-20T21:17:36.235Z,99.90
2019-01-20T21:20:09.482Z,99.90
2019-01-20T21:22:36.072Z,99.90
2019-01-20T21:25:06.089Z,99.90
2019-01-20T21:27:32.712Z,99.90
2019-01-20T21:29:59.479Z,99.90
2019-01-20T21:32:26.119Z,99.90
2019-01-20T21:34:52.620Z,99.90
2019-01-20T21:37:19.546Z,99.90
2019-01-20T21:39:46.005Z,99.90
2019-01-20T21:42:12.567Z,99.90
2019-01-20T21:44:39.040Z,99.90
2019-01-20T21:47:05.607Z,99.90
2019-01-20T21:49:32.112Z,99.90
2019-01-20T21:51:58.550Z,99.90
2019-01-20T21:54:24.988Z,99.90
2019-01-20T21:56:51.728Z,99.90
2019-01-20T21:59:18.292Z,99.90
2019-01-20T22:01:44.764Z,99.90
2019-01-20T22:04:11.228Z,99.90
2019-01-20T22:06:38.069Z,99.90
2019-01-20T22:09:05.955Z,99.90
2019-01-20T22:11:32.656Z,99.90
2019-01-20T22:13:59.111Z,99.90
2019-01-20T22:16:25.560Z,99.90
2019-01-20T22:18:52.039Z,99.90
2019-01-20T22:21:18.498Z,99.90
2019-01-20T22:23:45.216Z,99.90
2019-01-20T22:26:11.568Z,99.90
2019-01-20T22:28:38.031Z,99.90
2019-01-20T22:31:04.692Z,99.90
2019-01-20T22:33:31.280Z,99.90
2019-01-20T22:35:57.728Z,99.90
2019-01-20T22:38:24.212Z,99.90
2019-01-20T22:40:50.916Z,99.90
2019-01-20T22:43:17.390Z,99.90
2019-01-20T22:45:44.045Z,99.90
2019-01-20T22:48:10.528Z,99.90
2019-01-20T22:50:36.967Z,99.90
2019-01-20T22:53:03.421Z,99.90
2019-01-20T22:55:30.101Z,99.90
2019-01-20T22:57:56.654Z,99.90
2019-01-20T23:00:28.836Z,99.90
2019-01-20T23:02:55.398Z,99.90
2019-01-20T23:05:22.387Z,99.90
2019-01-20T23:07:49.203Z,99.90
2019-01-20T23:10:15.783Z,99.90
2019-01-20T23:12:42.439Z,99.90
2019-01-20T23:15:09.435Z,99.90
2019-01-20T23:17:35.915Z,99.90
2019-01-20T23:20:05.649Z,99.90
2019-01-20T23:22:32.420Z,99.90
2019-01-20T23:24:58.969Z,99.90
2019-01-20T23:27:25.621Z,99.90
2019-01-20T23:29:51.993Z,99.90
2019-01-20T23:32:18.568Z,99.90
2019-01-20T23:34:45.355Z,99.90
2019-01-20T23:37:12.079Z,99.90
2019-01-20T23:39:38.553Z,99.90
2019-01-20T23:42:05.264Z,99.90
2019-01-20T23:44:31.971Z,99.90
2019-01-20T23:46:58.448Z,99.90
2019-01-20T23:49:24.902Z,99.90
2019-01-20T23:51:51.476Z,99.90
2019-01-20T23:54:18.044Z,99.90
2019-01-20T23:56:44.754Z,99.90
2019-01-20T23:59:11.590Z,99.90
